createdAt,value
2018-05-02T00:00:33.174Z,7.70
2018-05-02T00:02:26.116Z,9.10
2018-05-02T00:03:26.100Z,9.10
2018-05-02T00:05:19.052Z,8.00
2018-05-02T00:06:19.049Z,10.20
2018-05-02T00:08:11.979Z,10.20
2018-05-02T00:09:11.989Z,8.10
2018-05-02T00:11:04.928Z,10.30
2018-05-02T00:12:04.914Z,8.90
2018-05-02T00:13:57.856Z,7.20
2018-05-02T00:14:57.850Z,8.60
2018-05-02T00:16:50.788Z,8.10
2018-05-02T00:17:50.783Z,10.00
2018-05-02T00:19:43.737Z,10.20
2018-05-02T00:20:43.806Z,7.40
2018-05-02T00:22:36.652Z,9.00
2018-05-02T00:23:36.658Z,8.80
2018-05-02T00:25:29.605Z,8.50
2018-05-02T00:26:29.591Z,8.70
2018-05-02T00:28:22.514Z,7.70
2018-05-02T00:29:22.520Z,8.70
2018-05-02T00:31:15.476Z,8.80
2018-05-02T00:32:15.527Z,8.80
2018-05-02T00:34:08.463Z,9.60
2018-05-02T00:35:08.397Z,8.80
2018-05-02T00:36:08.421Z,7.50
2018-05-02T00:37:08.441Z,7.70
2018-05-02T00:38:08.448Z,9.80
2018-05-02T00:39:08.462Z,8.10
2018-05-02T00:40:08.478Z,9.40
2018-05-02T00:41:08.495Z,12.40
2018-05-02T00:42:08.514Z,10.60
2018-05-02T00:43:08.533Z,7.50
2018-05-02T00:44:08.554Z,10.60
2018-05-02T00:45:08.556Z,8.40
2018-05-02T00:46:08.578Z,9.30
2018-05-02T00:47:08.594Z,8.60
2018-05-02T00:48:08.606Z,9.40
2018-05-02T00:49:08.626Z,8.10
2018-05-02T00:50:08.641Z,10.90
2018-05-02T00:51:08.655Z,9.00
2018-05-02T00:52:08.674Z,10.50
2018-05-02T00:53:08.686Z,7.90
2018-05-02T00:54:08.707Z,9.00
2018-05-02T00:55:08.721Z,12.00
2018-05-02T00:56:08.756Z,7.80
2018-05-02T00:57:08.757Z,9.20
2018-05-02T00:58:08.778Z,7.70
2018-05-02T00:59:08.786Z,11.10
2018-05-02T01:00:08.807Z,8.90
2018-05-02T01:01:08.814Z,10.50
2018-05-02T01:02:08.831Z,9.80
2018-05-02T01:03:08.851Z,12.00
2018-05-02T01:04:08.863Z,10.90
2018-05-02T01:05:08.887Z,7.20
2018-05-02T01:06:08.896Z,7.40
2018-05-02T01:07:08.919Z,9.60
2018-05-02T01:08:08.927Z,9.60
2018-05-02T01:09:08.950Z,9.10
2018-05-02T01:10:08.963Z,8.90
2018-05-02T01:11:08.985Z,10.50
2018-05-02T01:12:09.001Z,8.70
2018-05-02T01:13:09.015Z,8.30
2018-05-02T01:14:09.022Z,7.00
2018-05-02T01:15:09.039Z,10.90
2018-05-02T01:16:09.056Z,7.00
2018-05-02T01:17:09.073Z,8.90
2018-05-02T01:18:09.088Z,7.90
2018-05-02T01:19:09.108Z,10.70
2018-05-02T01:20:09.128Z,11.30
2018-05-02T01:21:09.144Z,9.00
2018-05-02T01:22:09.153Z,9.60
2018-05-02T01:23:09.173Z,8.90
2018-05-02T01:24:09.183Z,9.20
2018-05-02T01:25:09.198Z,9.70
2018-05-02T01:26:09.215Z,10.40
2018-05-02T01:27:09.229Z,10.50
2018-05-02T01:28:09.249Z,10.80
2018-05-02T01:29:09.267Z,8.70
2018-05-02T01:30:09.279Z,9.70
2018-05-02T01:31:09.299Z,8.20
2018-05-02T01:32:09.316Z,8.20
2018-05-02T01:33:09.330Z,9.00
2018-05-02T01:34:09.341Z,8.00
2018-05-02T01:35:09.365Z,8.40
2018-05-02T01:36:09.377Z,8.80
2018-05-02T01:37:09.394Z,6.70
2018-05-02T01:38:09.405Z,7.10
2018-05-02T01:39:09.421Z,9.00
2018-05-02T01:40:09.441Z,8.10
2018-05-02T01:41:09.455Z,9.30
2018-05-02T01:42:09.470Z,7.00
2018-05-02T01:43:09.491Z,8.40
2018-05-02T01:44:09.499Z,10.20
2018-05-02T01:45:09.516Z,8.20
2018-05-02T01:46:09.543Z,9.70
2018-05-02T01:47:09.552Z,9.80
2018-05-02T03:47:48.630Z,5.30
2018-05-02T03:48:48.612Z,13.20
2018-05-02T03:50:41.553Z,13.50
2018-05-02T03:51:41.519Z,12.40
2018-05-02T03:53:34.450Z,13.40
2018-05-02T03:54:34.430Z,12.70
2018-05-02T03:56:27.369Z,12.20
2018-05-02T03:57:27.364Z,13.70
2018-05-02T03:59:20.293Z,11.40
2018-05-02T04:00:20.279Z,10.60
2018-05-02T04:02:13.196Z,12.30
2018-05-02T04:03:13.198Z,12.80
2018-05-02T04:05:06.163Z,11.40
2018-05-02T04:06:06.133Z,12.40
2018-05-02T04:07:59.050Z,9.80
2018-05-02T04:08:59.064Z,11.90
2018-05-02T04:10:51.987Z,10.40
2018-05-02T04:11:51.980Z,9.30
2018-05-02T04:13:44.902Z,11.30
2018-05-02T04:14:44.900Z,10.40
2018-05-02T04:16:37.849Z,11.00
2018-05-02T04:17:37.829Z,9.10
2018-05-02T04:19:30.779Z,9.10
2018-05-02T04:20:30.772Z,10.90
2018-05-02T04:22:23.683Z,10.30
2018-05-02T04:23:23.686Z,10.70
2018-05-02T04:25:16.630Z,12.50
2018-05-02T04:26:16.626Z,10.40
2018-05-02T04:27:16.634Z,11.00
2018-05-02T04:28:16.650Z,7.40
2018-05-02T04:29:16.659Z,9.20
2018-05-02T04:30:16.680Z,9.40
2018-05-02T04:31:16.694Z,11.20
2018-05-02T04:32:16.709Z,9.70
2018-05-02T04:33:16.719Z,10.90
2018-05-02T04:34:16.743Z,10.60
2018-05-02T04:35:16.750Z,8.10
2018-05-02T04:36:16.775Z,10.40
2018-05-02T04:37:16.791Z,7.90
2018-05-02T04:38:16.799Z,9.30
2018-05-02T04:39:16.812Z,12.60
2018-05-02T04:40:16.828Z,9.60
2018-05-02T04:41:16.845Z,9.10
2018-05-02T04:42:16.862Z,8.70
2018-05-02T04:43:16.880Z,10.40
2018-05-02T04:44:16.897Z,11.70
2018-05-02T04:45:16.908Z,10.60
2018-05-02T04:46:16.923Z,11.50
2018-05-02T04:47:16.937Z,10.40
2018-05-02T04:48:16.952Z,9.40
2018-05-02T04:49:16.980Z,11.20
2018-05-02T04:50:16.986Z,8.90
2018-05-02T04:51:17.001Z,8.50
2018-05-02T04:52:17.024Z,7.80
2018-05-02T04:53:17.031Z,9.80
2018-05-02T04:54:17.049Z,11.10
2018-05-02T04:55:17.087Z,10.00
2018-05-02T04:56:17.078Z,9.90
2018-05-02T04:57:17.100Z,9.50
2018-05-02T04:58:17.118Z,10.10
2018-05-02T04:59:17.129Z,10.80
2018-05-02T05:00:17.140Z,11.10
2018-05-02T05:01:17.174Z,9.50
2018-05-02T05:02:17.177Z,8.90
2018-05-02T05:03:17.191Z,9.90
2018-05-02T05:04:17.205Z,8.20
2018-05-02T05:05:17.225Z,10.50
2018-05-02T05:06:17.237Z,11.90
2018-05-02T05:07:17.251Z,11.10
2018-05-02T05:08:17.272Z,11.90
2018-05-02T05:09:17.286Z,8.60
2018-05-02T05:10:17.307Z,10.90
2018-05-02T05:11:17.318Z,10.30
2018-05-02T05:12:17.385Z,9.00
2018-05-02T05:13:17.357Z,9.50
2018-05-02T05:14:17.367Z,11.20
2018-05-02T05:15:17.389Z,9.80
2018-05-02T05:16:17.398Z,12.40
2018-05-02T05:17:17.418Z,11.00
2018-05-02T05:18:17.435Z,8.60
2018-05-02T05:19:17.448Z,10.90
2018-05-02T05:20:17.469Z,9.80
2018-05-02T05:21:17.484Z,14.00
2018-05-02T05:22:17.517Z,11.10
2018-05-02T05:23:17.528Z,9.40
2018-05-02T05:24:17.539Z,8.90
2018-05-02T05:25:17.549Z,8.10
2018-05-02T05:26:17.566Z,10.60
2018-05-02T05:27:17.577Z,10.60
2018-05-02T05:28:17.648Z,9.60
2018-05-02T05:29:17.619Z,13.00
2018-05-02T05:30:17.630Z,10.60
2018-05-02T05:31:17.649Z,11.40
2018-05-02T05:32:17.667Z,8.70
2018-05-02T05:33:17.681Z,11.90
2018-05-02T05:34:17.709Z,8.40
2018-05-02T05:35:17.789Z,9.50
2018-05-02T05:36:17.737Z,11.70
2018-05-02T05:37:17.747Z,11.80
2018-05-02T05:38:17.765Z,10.70
2018-05-02T05:39:17.788Z,8.90
2018-05-02T05:40:17.800Z,10.30
2018-05-02T05:41:17.814Z,9.40
2018-05-02T05:42:17.838Z,9.50
2018-05-02T05:43:17.847Z,9.60
2018-05-02T05:44:17.875Z,9.40
2018-05-02T05:45:17.888Z,12.90
2018-05-02T05:46:17.902Z,13.70
2018-05-02T05:47:17.918Z,11.90
2018-05-02T05:48:17.934Z,11.80
2018-05-02T05:49:17.948Z,8.90
2018-05-02T05:50:17.967Z,8.80
2018-05-02T05:51:17.985Z,11.40
2018-05-02T05:52:18.006Z,9.70
2018-05-02T05:53:18.017Z,8.80
2018-05-02T05:54:18.187Z,11.20
2018-05-02T05:55:18.056Z,6.40
2018-05-02T05:56:18.068Z,9.50
2018-05-02T05:57:18.088Z,12.00
2018-05-02T05:58:18.106Z,10.60
2018-05-02T05:59:18.117Z,9.70
2018-05-02T06:00:18.132Z,7.60
2018-05-02T06:01:18.156Z,10.40
2018-05-02T06:02:18.180Z,8.10
2018-05-02T06:03:18.274Z,7.70
2018-05-02T06:04:18.203Z,8.20
2018-05-02T06:05:19.170Z,7.40
2018-05-02T06:06:18.239Z,6.60
2018-05-02T06:07:18.253Z,7.30
2018-05-02T06:08:18.276Z,7.30
2018-05-02T06:09:18.287Z,10.30
2018-05-02T06:10:18.319Z,7.90
2018-05-02T06:11:18.332Z,9.40
2018-05-02T06:12:18.354Z,5.90
2018-05-02T06:13:18.370Z,7.10
2018-05-02T06:14:18.381Z,7.30
2018-05-02T06:15:18.403Z,10.20
2018-05-02T06:16:18.419Z,5.10
2018-05-02T06:17:18.437Z,6.10
2018-05-02T06:18:18.460Z,7.50
2018-05-02T06:19:18.469Z,7.20
2018-05-02T06:20:18.486Z,5.40
2018-05-02T06:21:18.508Z,7.80
2018-05-02T06:22:18.521Z,10.00
2018-05-02T06:23:18.535Z,6.50
2018-05-02T06:24:18.557Z,7.70
2018-05-02T06:25:18.580Z,8.40
2018-05-02T06:26:18.600Z,6.40
2018-05-02T06:27:18.633Z,6.20
2018-05-02T06:28:18.631Z,6.30
2018-05-02T06:29:18.656Z,6.40
2018-05-02T06:30:18.670Z,5.50
2018-05-02T06:31:18.700Z,6.00
2018-05-02T06:32:18.725Z,5.10
2018-05-02T06:33:18.740Z,6.60
2018-05-02T06:34:18.759Z,5.50
2018-05-02T06:35:18.772Z,5.50
2018-05-02T06:36:18.800Z,7.20
2018-05-02T06:37:18.818Z,6.30
2018-05-02T06:38:18.846Z,6.40
2018-05-02T06:39:18.859Z,6.80
2018-05-02T06:40:18.888Z,6.30
2018-05-02T06:41:18.903Z,7.50
2018-05-02T06:42:18.921Z,7.20
2018-05-02T06:43:18.952Z,5.80
2018-05-02T06:44:18.976Z,7.50
2018-05-02T06:45:18.987Z,5.60
2018-05-02T06:46:19.008Z,6.50
2018-05-02T06:47:19.033Z,6.80
2018-05-02T06:48:19.059Z,5.80
2018-05-02T06:49:19.099Z,4.30
2018-05-02T06:50:19.159Z,4.60
2018-05-02T06:51:19.120Z,6.80
2018-05-02T06:52:19.147Z,6.60
2018-05-02T06:53:19.182Z,6.50
2018-05-02T06:54:19.204Z,5.80
2018-05-02T06:55:19.214Z,3.90
2018-05-02T06:56:19.238Z,3.20
2018-05-02T06:57:19.272Z,5.70
2018-05-02T06:58:19.302Z,4.80
2018-05-02T06:59:19.315Z,5.80
2018-05-02T07:00:19.335Z,5.00
2018-05-02T07:01:19.364Z,5.20
2018-05-02T07:02:19.396Z,5.10
2018-05-02T07:03:19.420Z,3.80
2018-05-02T07:04:19.446Z,4.50
2018-05-02T07:05:19.471Z,4.80
2018-05-02T07:06:19.495Z,6.20
2018-05-02T07:07:19.522Z,5.10
2018-05-02T07:08:19.548Z,4.50
2018-05-02T07:09:19.574Z,5.00
2018-05-02T07:10:19.607Z,4.90
2018-05-02T07:11:19.627Z,5.70
2018-05-02T07:12:19.652Z,6.90
2018-05-02T07:13:19.672Z,4.10
2018-05-02T07:14:19.703Z,5.50
2018-05-02T07:15:19.723Z,5.50
2018-05-02T07:16:19.752Z,3.50
2018-05-02T07:17:19.776Z,8.10
2018-05-02T07:18:19.800Z,5.10
2018-05-02T07:19:19.825Z,4.60
2018-05-02T07:20:19.862Z,5.00
2018-05-02T07:21:19.891Z,3.80
2018-05-02T07:22:19.908Z,4.70
2018-05-02T07:23:19.941Z,3.30
2018-05-02T07:24:19.963Z,5.30
2018-05-02T07:25:19.996Z,5.50
2018-05-02T07:26:20.033Z,5.50
2018-05-02T07:27:20.041Z,5.10
2018-05-02T07:28:20.067Z,9.20
2018-05-02T07:29:20.094Z,6.60
2018-05-02T07:30:20.126Z,5.30
2018-05-02T07:31:20.158Z,7.10
2018-05-02T07:32:20.178Z,5.30
2018-05-02T07:33:20.207Z,6.00
2018-05-02T07:34:20.233Z,4.70
2018-05-02T07:35:20.250Z,6.20
2018-05-02T07:36:20.282Z,8.30
2018-05-02T07:37:20.318Z,6.60
2018-05-02T07:38:20.339Z,4.60
2018-05-02T07:39:20.371Z,6.20
2018-05-02T07:40:20.388Z,3.80
2018-05-02T07:41:20.412Z,5.60
2018-05-02T07:42:20.436Z,4.00
2018-05-02T07:43:20.470Z,3.10
2018-05-02T07:44:20.489Z,3.00
2018-05-02T07:45:20.514Z,3.90
2018-05-02T07:46:20.539Z,4.80
2018-05-02T07:47:20.578Z,6.20
2018-05-02T07:48:20.602Z,6.30
2018-05-02T07:49:20.628Z,6.60
2018-05-02T07:50:20.656Z,5.30
2018-05-02T07:51:20.676Z,5.00
2018-05-02T07:52:20.709Z,5.40
2018-05-02T07:53:20.740Z,6.10
2018-05-02T07:54:20.754Z,5.50
2018-05-02T07:55:20.798Z,4.60
2018-05-02T07:56:20.832Z,4.30
2018-05-02T07:57:20.836Z,5.40
2018-05-02T07:58:20.855Z,5.10
2018-05-02T07:59:20.887Z,4.40
2018-05-02T08:00:20.901Z,4.50
2018-05-02T08:01:20.939Z,5.70
2018-05-02T08:02:20.975Z,4.30
2018-05-02T08:03:20.980Z,5.70
2018-05-02T08:04:21.013Z,6.00
2018-05-02T08:05:21.030Z,4.80
2018-05-02T08:06:21.061Z,4.20
2018-05-02T08:07:21.081Z,5.10
2018-05-02T08:08:21.106Z,4.60
2018-05-02T08:09:21.140Z,4.00
2018-05-02T08:10:21.171Z,5.90
2018-05-02T08:11:21.191Z,4.80
2018-05-02T08:12:21.228Z,6.30
2018-05-02T08:13:21.228Z,4.50
2018-05-02T08:14:26.377Z,4.90
2018-05-02T08:15:21.479Z,6.50
2018-05-02T08:16:21.499Z,4.20
2018-05-02T08:17:22.879Z,4.40
2018-05-02T08:18:21.352Z,7.80
2018-05-02T08:19:21.386Z,5.90
2018-05-02T08:20:21.477Z,3.50
2018-05-02T08:21:21.419Z,5.00
2018-05-02T08:22:21.458Z,4.60
2018-05-02T08:23:21.468Z,5.80
2018-05-02T08:24:21.497Z,4.50
2018-05-02T08:25:21.518Z,4.40
2018-05-02T08:26:21.612Z,4.80
2018-05-02T08:27:21.566Z,4.30
2018-05-02T08:28:21.593Z,5.80
2018-05-02T08:29:21.619Z,4.30
2018-05-02T08:30:21.632Z,4.00
2018-05-02T08:31:21.740Z,4.50
2018-05-02T08:32:21.683Z,3.40
2018-05-02T08:33:21.701Z,5.50
2018-05-02T08:34:21.735Z,4.80
2018-05-02T08:35:21.747Z,4.20
2018-05-02T08:36:21.786Z,4.50
2018-05-02T08:37:21.800Z,4.50
2018-05-02T08:38:21.822Z,6.50
2018-05-02T08:39:21.858Z,4.30
2018-05-02T08:40:21.864Z,5.60
2018-05-02T08:41:21.890Z,8.70
2018-05-02T08:42:21.912Z,6.40
2018-05-02T08:43:21.924Z,6.10
2018-05-02T08:44:21.978Z,5.40
2018-05-02T08:45:21.973Z,7.60
2018-05-02T08:46:22.006Z,5.40
2018-05-02T08:47:22.020Z,5.90
2018-05-02T08:48:22.049Z,4.80
2018-05-02T08:49:22.070Z,6.40
2018-05-02T08:50:22.089Z,3.30
2018-05-02T08:51:22.103Z,5.30
2018-05-02T08:52:22.135Z,3.70
2018-05-02T08:53:22.151Z,3.80
2018-05-02T08:54:22.184Z,5.30
2018-05-02T08:55:22.228Z,4.70
2018-05-02T08:56:22.219Z,2.90
2018-05-02T08:57:22.332Z,4.10
2018-05-02T08:58:22.271Z,2.90
2018-05-02T08:59:22.303Z,3.20
2018-05-02T09:00:22.315Z,4.50
2018-05-02T09:01:22.335Z,3.40
2018-05-02T09:02:22.359Z,5.00
2018-05-02T09:03:22.375Z,6.20
2018-05-02T09:04:22.401Z,3.10
2018-05-02T09:05:22.420Z,5.10
2018-05-02T09:06:22.445Z,5.10
2018-05-02T09:07:22.488Z,4.50
